Time;durP1;ratioP1;P1;durP2;ratioP2;P2;SDS_P1;SDS_P2;PMS_P1;PMS_P2;Temp;Humidity;BMP_temperature;BMP_pressure;BME280_temperature;BME280_humidity;BME280_pressure;Samples;Min_cycle;Max_cycle;Signal;HPM_P1;HPM_P2
2023/02/23 00:00:20;;;;;;;21.70;17.20;;;11.40;99.90;;;;;;4993614;28;20915;-72
2023/02/23 00:02:47;;;;;;;19.90;14.43;;;11.40;99.90;;;;;;5006062;28;20179;-71
2023/02/23 00:05:13;;;;;;;21.90;17.70;;;11.50;99.90;;;;;;5024837;28;20421;-71
2023/02/23 00:07:42;;;;;;;17.03;15.23;;;11.50;99.90;;;;;;5008578;28;20836;-72
2023/02/23 00:10:12;;;;;;;21.30;16.43;;;11.50;99.90;;;;;;5025387;28;20577;-71
2023/02/23 00:12:41;;;;;;;18.60;15.93;;;11.60;99.90;;;;;;5007242;28;20406;-71
2023/02/23 00:15:08;;;;;;;17.43;14.83;;;11.50;99.90;;;;;;5006468;28;20419;-72
2023/02/23 00:17:35;;;;;;;22.20;16.60;;;11.50;99.90;;;;;;5017212;28;20744;-72
2023/02/23 00:20:06;;;;;;;21.57;14.83;;;11.40;99.90;;;;;;5026421;28;20515;-71
2023/02/23 00:22:33;;;;;;;17.03;14.70;;;11.40;99.90;;;;;;5024723;28;20703;-73
2023/02/23 00:24:59;;;;;;;16.43;14.60;;;11.40;99.90;;;;;;5010899;28;20513;-72
2023/02/23 00:27:25;;;;;;;20.50;15.80;;;11.50;99.90;;;;;;5050288;22;20557;-73
2023/02/23 00:29:51;;;;;;;16.37;14.37;;;11.60;99.90;;;;;;5000495;28;20438;-75
2023/02/23 00:32:18;;;;;;;16.93;15.10;;;11.60;99.90;;;;;;4987676;28;20556;-75
2023/02/23 00:34:47;;;;;;;16.60;14.83;;;11.60;99.90;;;;;;4969842;28;20424;-73
2023/02/23 00:37:13;;;;;;;16.97;15.30;;;11.60;99.90;;;;;;4987557;28;20419;-73
2023/02/23 00:39:39;;;;;;;17.23;14.97;;;11.60;99.90;;;;;;4969743;28;20815;-75
2023/02/23 00:42:06;;;;;;;18.33;15.57;;;11.60;99.90;;;;;;4985403;28;20629;-72
2023/02/23 00:44:32;;;;;;;17.40;15.60;;;11.60;99.90;;;;;;4987892;28;20176;-74
2023/02/23 00:46:58;;;;;;;21.63;17.63;;;11.60;99.90;;;;;;4986789;28;21074;-76
2023/02/23 00:49:24;;;;;;;16.87;14.87;;;11.60;99.90;;;;;;4969883;28;20483;-73
2023/02/23 00:51:51;;;;;;;18.60;16.67;;;11.50;99.90;;;;;;4970251;28;20900;-75
2023/02/23 00:54:18;;;;;;;20.83;16.80;;;11.60;99.90;;;;;;4969584;28;20184;-73
2023/02/23 00:56:44;;;;;;;21.93;18.83;;;11.40;99.90;;;;;;4987070;28;21006;-74
2023/02/23 00:59:10;;;;;;;19.60;15.13;;;11.40;99.90;;;;;;4969659;28;20819;-76
2023/02/23 01:01:40;;;;;;;20.40;17.43;;;11.30;99.90;;;;;;4987007;28;20423;-74
2023/02/23 01:04:06;;;;;;;21.70;19.37;;;11.30;99.90;;;;;;4986673;28;20414;-74
2023/02/23 01:06:33;;;;;;;27.07;21.17;;;11.30;99.90;;;;;;4986791;28;20459;-75
2023/02/23 01:08:59;;;;;;;20.07;17.93;;;11.30;99.90;;;;;;4986393;28;20442;-75
2023/02/23 01:11:27;;;;;;;24.10;20.83;;;11.20;99.90;;;;;;4986559;28;20439;-74
2023/02/23 01:13:55;;;;;;;27.60;23.17;;;11.10;99.90;;;;;;4985860;28;20191;-76
2023/02/23 01:16:27;;;;;;;29.53;22.90;;;11.10;99.90;;;;;;4986039;28;20471;-73
2023/02/23 01:18:59;;;;;;;27.30;20.60;;;11.10;99.90;;;;;;4986572;28;20438;-75
2023/02/23 01:21:27;;;;;;;30.97;24.60;;;11.10;99.90;;;;;;4986090;28;20472;-75
2023/02/23 01:23:54;;;;;;;23.47;19.80;;;11.10;99.90;;;;;;4986644;28;20801;-74
2023/02/23 01:26:23;;;;;;;23.27;19.80;;;11.10;99.90;;;;;;4967807;28;20454;-74
2023/02/23 01:28:53;;;;;;;25.97;23.20;;;11.20;99.90;;;;;;4986380;28;21209;-74
2023/02/23 01:31:20;;;;;;;23.93;21.40;;;11.20;99.90;;;;;;4986086;28;20419;-74
2023/02/23 01:33:46;;;;;;;24.27;21.67;;;11.20;99.90;;;;;;4986989;28;20423;-76
2023/02/23 01:36:12;;;;;;;24.97;21.43;;;11.20;99.90;;;;;;4968296;28;20602;-75
2023/02/23 01:38:38;;;;;;;25.87;21.40;;;11.30;99.90;;;;;;4986717;28;20705;-73
2023/02/23 01:41:05;;;;;;;31.67;24.63;;;11.20;99.90;;;;;;4986996;28;20485;-75
2023/02/23 01:43:32;;;;;;;26.50;23.70;;;11.30;99.90;;;;;;4986067;28;20799;-75
2023/02/23 01:45:57;;;;;;;25.33;21.50;;;11.30;99.90;;;;;;4986848;28;20463;-75
2023/02/23 01:48:33;;;;;;;25.77;22.17;;;11.30;99.90;;;;;;4986780;28;20867;-75
2023/02/23 01:51:08;;;;;;;24.47;21.53;;;11.30;99.90;;;;;;4969006;28;20423;-73
2023/02/23 01:53:38;;;;;;;25.30;22.57;;;11.20;99.90;;;;;;4986329;28;20425;-75
2023/02/23 01:56:10;;;;;;;25.03;21.00;;;11.30;99.90;;;;;;4968033;28;20423;-74
2023/02/23 01:58:39;;;;;;;29.50;23.60;;;11.30;99.90;;;;;;4986182;28;20427;-75
2023/02/23 02:01:05;;;;;;;24.77;20.60;;;11.20;99.90;;;;;;4986164;28;20502;-75
2023/02/23 02:04:00;;;;;;;22.77;20.40;;;11.20;99.90;;;;;;4967709;28;20922;-74
2023/02/23 02:06:27;;;;;;;26.47;22.20;;;11.20;99.90;;;;;;4968715;28;20463;-75
2023/02/23 02:08:56;;;;;;;25.03;22.33;;;11.20;99.90;;;;;;4968744;28;20526;-73
2023/02/23 02:11:29;;;;;;;24.10;20.87;;;11.20;99.90;;;;;;4968131;28;20420;-74
2023/02/23 02:13:58;;;;;;;27.07;24.13;;;11.20;99.90;;;;;;4968471;28;20427;-74
2023/02/23 02:16:45;;;;;;;26.70;23.70;;;11.20;99.90;;;;;;4985838;28;20573;-73
2023/02/23 02:19:35;;;;;;;26.17;21.00;;;11.20;99.90;;;;;;4986090;28;20433;-73
2023/02/23 02:22:35;;;;;;;24.37;21.03;;;11.30;99.90;;;;;;4985750;28;20506;-72
2023/02/23 02:25:51;;;;;;;25.23;22.50;;;11.30;99.90;;;;;;4986374;28;20407;-76
2023/02/23 02:29:01;;;;;;;23.63;20.37;;;11.30;99.90;;;;;;4926117;28;20491;-76
2023/02/23 02:31:48;;;;;;;27.60;24.60;;;11.30;99.90;;;;;;4976399;28;20435;-73
2023/02/23 02:34:51;;;;;;;24.20;21.00;;;11.30;99.90;;;;;;4968673;28;20419;-75
2023/02/23 02:37:40;;;;;;;30.40;24.67;;;11.30;99.90;;;;;;4985481;28;20412;-75
2023/02/23 02:40:29;;;;;;;29.07;23.27;;;11.20;99.90;;;;;;4985296;28;20945;-75
2023/02/23 02:43:13;;;;;;;24.57;20.13;;;11.20;99.90;;;;;;4948638;28;20427;-75
2023/02/23 02:46:04;;;;;;;26.93;21.63;;;11.20;99.90;;;;;;4968331;28;20533;-75
2023/02/23 02:48:42;;;;;;;21.97;19.27;;;11.20;99.90;;;;;;4985785;28;20436;-74
2023/02/23 02:51:20;;;;;;;25.10;20.97;;;11.30;99.90;;;;;;4984946;28;20419;-75
2023/02/23 02:53:57;;;;;;;25.43;19.90;;;11.20;99.90;;;;;;4985632;28;20401;-76
2023/02/23 02:56:25;;;;;;;23.70;20.67;;;11.10;99.90;;;;;;4967470;28;20461;-75
2023/02/23 02:58:52;;;;;;;22.13;19.80;;;11.20;99.90;;;;;;4968432;28;20439;-76
2023/02/23 04:19:07;;;;;;;13.60;12.20;;;11.20;99.90;;;;;;4988129;28;20439;-75
2023/02/23 04:21:33;;;;;;;15.40;12.67;;;11.30;99.90;;;;;;4988509;28;20466;-74
2023/02/23 04:23:58;;;;;;;14.77;13.37;;;11.30;99.90;;;;;;4988627;28;20606;-74
2023/02/23 04:26:24;;;;;;;13.30;11.77;;;11.40;99.90;;;;;;4988669;28;20683;-75
2023/02/23 04:28:49;;;;;;;13.13;10.97;;;11.40;99.90;;;;;;4988358;28;20598;-75
2023/02/23 04:31:17;;;;;;;15.30;12.60;;;11.40;99.90;;;;;;4987330;28;20703;-75
2023/02/23 04:33:43;;;;;;;13.80;11.03;;;11.40;99.90;;;;;;4970636;28;20233;-75
2023/02/23 04:36:08;;;;;;;13.60;10.83;;;11.40;99.90;;;;;;4970672;28;20973;-74
2023/02/23 04:38:34;;;;;;;12.20;10.70;;;11.40;99.90;;;;;;4988497;28;20470;-77
2023/02/23 04:41:00;;;;;;;13.70;10.97;;;11.50;99.90;;;;;;4970384;28;20662;-75
2023/02/23 04:43:25;;;;;;;13.33;10.10;;;11.50;99.90;;;;;;4988228;28;20212;-75
2023/02/23 04:45:51;;;;;;;13.17;11.87;;;11.50;99.90;;;;;;4987577;28;20200;-74
2023/02/23 04:48:17;;;;;;;12.70;11.40;;;11.40;99.90;;;;;;4988058;28;20255;-76
2023/02/23 04:50:42;;;;;;;12.40;11.07;;;11.40;99.90;;;;;;4970821;28;20944;-75
2023/02/23 04:53:08;;;;;;;13.43;11.63;;;11.40;99.90;;;;;;4988462;28;20264;-77
2023/02/23 04:55:33;;;;;;;14.30;11.73;;;11.40;99.90;;;;;;4969492;28;20209;-74
2023/02/23 04:58:00;;;;;;;11.37;9.87;;;11.40;99.90;;;;;;4987385;28;20239;-76
2023/02/23 05:00:28;;;;;;;14.13;10.20;;;11.40;99.90;;;;;;4987469;28;20177;-76
2023/02/23 05:02:54;;;;;;;12.57;10.80;;;11.40;99.90;;;;;;4986876;28;20454;-74
2023/02/23 05:05:20;;;;;;;12.33;9.73;;;11.40;99.90;;;;;;4987891;28;20423;-75
2023/02/23 05:07:45;;;;;;;12.73;11.43;;;11.40;99.90;;;;;;4987154;28;20998;-76
2023/02/23 05:10:11;;;;;;;15.17;11.57;;;11.40;99.90;;;;;;4987725;28;20420;-75
2023/02/23 05:12:37;;;;;;;12.67;11.37;;;11.40;99.90;;;;;;4969124;28;20802;-76
2023/02/23 05:15:03;;;;;;;12.33;10.47;;;11.50;99.90;;;;;;4987420;28;20406;-76
2023/02/23 05:17:29;;;;;;;12.43;11.23;;;11.30;99.90;;;;;;4987065;28;20882;-74
2023/02/23 05:19:55;;;;;;;13.30;11.90;;;11.30;99.90;;;;;;4987159;28;20421;-74
2023/02/23 05:22:21;;;;;;;13.20;11.80;;;11.30;99.90;;;;;;4987497;28;20267;-74
2023/02/23 05:24:47;;;;;;;14.03;12.07;;;11.20;99.90;;;;;;4987144;28;20581;-73
2023/02/23 05:27:14;;;;;;;17.10;13.00;;;11.20;99.90;;;;;;4987090;28;20479;-75
2023/02/23 05:29:40;;;;;;;18.13;14.43;;;11.10;99.90;;;;;;4986611;28;20458;-75
2023/02/23 05:32:06;;;;;;;16.20;13.27;;;11.10;99.90;;;;;;4986543;28;20809;-72
2023/02/23 05:34:31;;;;;;;12.50;11.20;;;11.10;99.90;;;;;;4985971;28;20613;-73
2023/02/23 05:36:57;;;;;;;15.10;10.70;;;11.20;99.90;;;;;;4969243;28;20788;-72
2023/02/23 05:39:23;;;;;;;14.37;12.23;;;11.30;99.90;;;;;;4987162;28;20214;-75
2023/02/23 05:41:48;;;;;;;14.10;12.17;;;11.30;99.90;;;;;;4986558;28;20220;-73
2023/02/23 05:44:14;;;;;;;18.93;12.97;;;11.30;99.90;;;;;;4986942;28;20180;-74
2023/02/23 05:46:39;;;;;;;14.00;11.63;;;11.20;99.90;;;;;;4968960;28;20246;-73
2023/02/23 05:49:05;;;;;;;13.00;11.73;;;11.20;99.90;;;;;;4986781;28;20238;-74
2023/02/23 05:51:33;;;;;;;14.00;10.90;;;11.20;99.90;;;;;;4986755;28;20238;-75
2023/02/23 05:53:59;;;;;;;12.63;11.40;;;11.20;99.90;;;;;;4986986;28;20232;-75
2023/02/23 05:56:25;;;;;;;14.70;13.20;;;11.20;99.90;;;;;;4986343;28;20439;-73
2023/02/23 05:58:53;;;;;;;11.03;9.93;;;11.20;99.90;;;;;;4986523;28;20992;-73
2023/02/23 06:01:21;;;;;;;12.93;10.63;;;11.20;99.90;;;;;;4968422;28;20430;-73
2023/02/23 06:03:47;;;;;;;12.80;9.57;;;11.20;99.90;;;;;;4986511;28;20937;-74
2023/02/23 06:06:13;;;;;;;14.57;11.60;;;11.30;99.90;;;;;;4986280;28;20482;-75
2023/02/23 06:08:39;;;;;;;14.77;10.67;;;11.20;99.90;;;;;;4986487;28;20474;-73
2023/02/23 06:11:05;;;;;;;11.07;9.63;;;11.10;99.90;;;;;;4986206;28;20470;-73
2023/02/23 06:13:31;;;;;;;12.87;11.33;;;11.10;99.90;;;;;;4985955;28;20627;-73
2023/02/23 06:15:58;;;;;;;11.10;9.90;;;11.10;99.90;;;;;;4968497;28;20185;-74
2023/02/23 06:18:27;;;;;;;10.43;9.33;;;11.10;99.90;;;;;;4968134;28;20581;-73
2023/02/23 06:20:53;;;;;;;12.37;10.90;;;11.10;99.90;;;;;;4985997;28;20833;-74
2023/02/23 06:23:19;;;;;;;11.90;9.63;;;11.10;99.90;;;;;;4986054;28;20470;-73
2023/02/23 06:25:47;;;;;;;13.37;10.37;;;11.10;99.90;;;;;;4985724;28;20922;-73
2023/02/23 06:28:14;;;;;;;12.93;10.60;;;11.20;99.90;;;;;;4986135;28;20469;-71
2023/02/23 06:30:40;;;;;;;11.27;9.80;;;11.20;99.90;;;;;;4985426;28;20407;-73
2023/02/23 06:33:06;;;;;;;13.73;11.70;;;11.20;99.90;;;;;;4984678;28;20415;-73
2023/02/23 06:35:33;;;;;;;15.47;12.23;;;11.20;99.90;;;;;;4967516;28;20835;-72
2023/02/23 06:37:59;;;;;;;14.60;12.53;;;11.20;99.90;;;;;;4985973;28;20768;-74
2023/02/23 06:40:25;;;;;;;13.87;12.10;;;11.20;99.90;;;;;;4967684;28;20949;-73
2023/02/23 06:42:50;;;;;;;14.63;12.70;;;11.20;99.90;;;;;;4985343;28;20427;-75
2023/02/23 06:45:18;;;;;;;15.20;13.60;;;11.20;99.90;;;;;;4967519;28;20179;-74
2023/02/23 06:47:43;;;;;;;15.90;12.90;;;11.10;99.90;;;;;;4967046;28;20215;-71
2023/02/23 06:50:10;;;;;;;15.97;13.73;;;11.00;99.90;;;;;;4985683;28;20775;-73
2023/02/23 06:52:36;;;;;;;12.60;11.30;;;11.10;99.90;;;;;;4985347;28;20507;-73
2023/02/23 06:55:02;;;;;;;12.67;10.43;;;11.00;99.90;;;;;;4985797;28;21083;-75
2023/02/23 06:57:28;;;;;;;14.70;10.53;;;11.00;99.90;;;;;;4984754;28;20186;-72
2023/02/23 06:59:53;;;;;;;13.10;11.30;;;11.00;99.90;;;;;;4985641;28;20243;-74
2023/02/23 07:02:19;;;;;;;10.27;9.17;;;11.10;99.90;;;;;;4984554;28;20194;-74
2023/02/23 07:04:44;;;;;;;12.07;10.80;;;11.10;99.90;;;;;;4985095;28;20184;-74
2023/02/23 07:07:10;;;;;;;11.17;9.87;;;11.10;99.90;;;;;;4984720;28;20247;-73
2023/02/23 07:09:35;;;;;;;11.80;10.20;;;11.20;99.90;;;;;;4967028;28;20271;-70
2023/02/23 07:12:01;;;;;;;11.13;9.93;;;11.20;99.90;;;;;;4984147;28;20216;-73
2023/02/23 07:14:27;;;;;;;11.10;9.57;;;11.20;99.90;;;;;;4984243;28;20186;-73
2023/02/23 07:16:53;;;;;;;12.50;10.40;;;11.20;99.90;;;;;;4966848;28;20426;-73
2023/02/23 07:19:18;;;;;;;12.50;10.57;;;11.10;99.90;;;;;;4966454;28;20299;-73
2023/02/23 07:21:44;;;;;;;11.70;10.50;;;11.10;99.90;;;;;;4984293;28;20191;-72
2023/02/23 07:24:09;;;;;;;12.80;9.83;;;11.20;99.90;;;;;;4966943;28;20676;-72
2023/02/23 07:26:35;;;;;;;12.60;10.37;;;11.20;99.90;;;;;;4984506;28;20746;-73
2023/02/23 07:29:01;;;;;;;11.17;9.97;;;11.30;99.90;;;;;;4984009;28;20311;-72
2023/02/23 07:31:27;;;;;;;12.20;10.20;;;11.20;99.90;;;;;;4966496;28;20208;-73
2023/02/23 07:33:53;;;;;;;11.30;10.20;;;11.30;99.90;;;;;;4983633;28;20416;-72
2023/02/23 07:36:21;;;;;;;12.17;9.07;;;11.50;99.90;;;;;;4984084;28;20185;-70
2023/02/23 07:38:46;;;;;;;10.37;8.87;;;11.50;99.90;;;;;;4984810;28;20447;-74
2023/02/23 07:41:12;;;;;;;12.87;10.73;;;11.60;99.90;;;;;;4985367;28;20519;-72
2023/02/23 07:43:38;;;;;;;11.47;9.50;;;11.80;99.90;;;;;;4967756;28;20234;-73
2023/02/23 07:46:03;;;;;;;10.43;9.33;;;11.90;99.90;;;;;;4967201;28;20204;-73
2023/02/23 07:48:29;;;;;;;11.00;9.63;;;12.00;99.90;;;;;;4966798;28;20210;-73
2023/02/23 07:50:54;;;;;;;12.20;9.83;;;12.10;99.90;;;;;;4984083;28;20240;-73
2023/02/23 07:53:20;;;;;;;12.70;11.40;;;12.30;99.90;;;;;;4984418;28;20176;-74
2023/02/23 07:55:53;;;;;;;12.00;10.77;;;12.30;99.90;;;;;;4984047;28;20177;-73
2023/02/23 07:58:19;;;;;;;12.53;10.87;;;12.20;99.90;;;;;;4984641;28;20201;-74
2023/02/23 08:00:44;;;;;;;11.97;10.63;;;12.20;99.90;;;;;;4984535;28;20503;-73
2023/02/23 08:03:10;;;;;;;13.30;11.90;;;12.30;99.90;;;;;;4984174;28;20294;-73
2023/02/23 08:05:38;;;;;;;13.20;11.70;;;12.20;99.90;;;;;;4966164;28;20960;-71
2023/02/23 08:08:04;;;;;;;10.60;9.50;;;12.20;99.90;;;;;;4984491;28;20513;-70
2023/02/23 08:10:30;;;;;;;12.50;9.83;;;12.30;99.90;;;;;;4985525;28;20457;-72
2023/02/23 08:12:56;;;;;;;11.33;9.63;;;12.40;99.90;;;;;;4984677;28;20413;-73
2023/02/23 08:15:22;;;;;;;13.80;10.77;;;12.40;99.90;;;;;;4985158;28;20929;-71
2023/02/23 08:17:48;;;;;;;9.70;8.63;;;12.60;99.90;;;;;;4984166;28;20441;-69
2023/02/23 08:20:13;;;;;;;12.50;9.37;;;12.70;99.90;;;;;;4984532;28;20184;-70
2023/02/23 08:22:39;;;;;;;10.70;9.00;;;12.80;99.90;;;;;;4985123;28;20191;-76
2023/02/23 08:25:05;;;;;;;11.00;9.90;;;13.00;99.90;;;;;;4988037;28;20648;-74
2023/02/23 08:27:35;;;;;;;12.13;10.20;;;13.10;99.90;;;;;;4987938;28;20746;-72
2023/02/23 08:30:02;;;;;;;11.27;9.57;;;13.20;99.90;;;;;;4987450;28;20420;-70
2023/02/23 08:32:33;;;;;;;12.57;9.20;;;13.30;99.90;;;;;;4987251;28;20425;-73
2023/02/23 08:35:01;;;;;;;11.43;10.23;;;13.30;99.90;;;;;;4969582;28;20864;-72
2023/02/23 08:37:28;;;;;;;11.07;9.93;;;13.50;99.90;;;;;;4987364;28;20440;-71
2023/02/23 08:39:54;;;;;;;10.63;8.60;;;13.60;99.90;;;;;;4987608;28;20949;-73
2023/02/23 08:42:20;;;;;;;10.60;8.63;;;13.60;99.90;;;;;;4987421;28;20411;-74
2023/02/23 08:44:45;;;;;;;11.83;9.90;;;13.60;99.90;;;;;;4987153;28;20427;-73
2023/02/23 08:47:11;;;;;;;10.07;8.23;;;13.60;99.90;;;;;;4986805;28;20278;-72
2023/02/23 08:49:36;;;;;;;23.50;18.30;;;13.60;99.90;;;;;;4969049;28;20527;-69
2023/02/23 08:52:02;;;;;;;22.17;14.63;;;13.50;99.90;;;;;;4986888;28;20661;-70
2023/02/23 08:54:28;;;;;;;16.23;11.80;;;13.50;99.90;;;;;;4986801;28;20598;-71
2023/02/23 08:56:56;;;;;;;14.20;10.70;;;13.60;99.90;;;;;;4986313;28;20190;-70
2023/02/23 08:59:22;;;;;;;10.90;8.97;;;13.60;99.90;;;;;;4986556;28;20239;-71
2023/02/23 09:01:48;;;;;;;13.80;9.50;;;13.70;99.90;;;;;;4986377;28;20458;-70
2023/02/23 09:04:13;;;;;;;9.57;7.33;;;13.70;99.90;;;;;;4986953;28;20277;-71
2023/02/23 09:06:39;;;;;;;8.57;7.13;;;13.60;99.90;;;;;;4986453;28;20218;-70
2023/02/23 09:09:05;;;;;;;12.40;8.13;;;13.60;99.90;;;;;;4987106;28;20758;-72
2023/02/23 09:11:31;;;;;;;10.13;7.07;;;13.60;99.90;;;;;;4986639;28;20428;-71
2023/02/23 09:13:57;;;;;;;8.80;7.50;;;13.80;99.90;;;;;;4987420;28;20468;-69
2023/02/23 09:16:22;;;;;;;8.60;6.47;;;14.00;99.90;;;;;;4986654;28;20571;-72
2023/02/23 09:18:48;;;;;;;13.57;9.73;;;14.10;99.90;;;;;;4986428;28;20213;-72
2023/02/23 09:21:17;;;;;;;21.17;11.73;;;14.30;99.90;;;;;;4986630;28;20668;-69
2023/02/23 09:23:45;;;;;;;15.00;9.57;;;14.40;99.90;;;;;;4986329;28;20559;-70
2023/02/23 09:26:11;;;;;;;11.90;8.80;;;14.40;99.90;;;;;;4986508;28;20668;-72
2023/02/23 09:28:37;;;;;;;9.13;8.23;;;14.50;99.90;;;;;;4968783;28;20853;-71
2023/02/23 09:31:14;;;;;;;11.73;7.93;;;14.40;99.90;;;;;;4987096;28;20929;-68
2023/02/23 09:33:40;;;;;;;9.80;7.53;;;14.50;99.90;;;;;;4969801;28;20432;-69
2023/02/23 09:36:15;;;;;;;11.73;7.70;;;14.50;99.90;;;;;;4987657;28;20807;-71
2023/02/23 09:38:42;;;;;;;10.63;7.17;;;14.60;99.90;;;;;;4986318;28;20200;-68
2023/02/23 09:41:29;;;;;;;10.23;7.20;;;14.50;99.90;;;;;;4986138;28;20426;-70
2023/02/23 09:44:13;;;;;;;13.27;7.60;;;14.30;99.90;;;;;;4970456;28;20438;-70
2023/02/23 09:46:59;;;;;;;11.47;7.73;;;14.10;99.90;;;;;;4985537;28;20833;-69
2023/02/23 09:49:28;;;;;;;10.80;6.63;;;14.20;99.90;;;;;;4985352;28;20789;-71
2023/02/23 09:51:58;;;;;;;8.80;6.67;;;14.30;99.90;;;;;;4985617;28;20481;-70
2023/02/23 09:54:32;;;;;;;10.67;6.70;;;14.50;99.90;;;;;;4985727;28;20457;-70
2023/02/23 09:57:03;;;;;;;12.73;7.53;;;14.60;99.90;;;;;;4985331;28;20967;-68
2023/02/23 09:59:30;;;;;;;7.40;5.87;;;14.60;99.90;;;;;;4985162;28;20458;-68
2023/02/23 10:02:21;;;;;;;9.30;6.20;;;14.90;99.90;;;;;;4968076;28;20513;-70
2023/02/23 10:05:10;;;;;;;6.70;6.00;;;14.80;99.90;;;;;;4985052;28;20799;-70
2023/02/23 10:07:38;;;;;;;8.80;6.57;;;14.50;99.90;;;;;;4985032;28;20906;-68
2023/02/23 10:10:29;;;;;;;9.43;6.00;;;14.70;99.90;;;;;;4985407;28;20414;-69
2023/02/23 10:13:33;;;;;;;7.70;5.90;;;15.00;99.90;;;;;;4985054;28;21218;-71
2023/02/23 10:16:24;;;;;;;7.13;6.13;;;14.90;99.90;;;;;;4985107;28;20423;-70
2023/02/23 10:18:55;;;;;;;10.47;7.73;;;15.10;99.90;;;;;;4984899;28;20446;-70
2023/02/23 10:21:41;;;;;;;10.20;7.83;;;15.20;99.90;;;;;;4984978;28;20419;-68
2023/02/23 10:24:16;;;;;;;11.67;9.00;;;15.30;99.90;;;;;;4987108;28;20419;-71
2023/02/23 10:26:50;;;;;;;9.17;5.87;;;14.60;99.90;;;;;;4985902;28;20465;-71
2023/02/23 10:29:31;;;;;;;6.13;5.10;;;14.30;99.90;;;;;;4989974;28;20488;-72
2023/02/23 10:32:02;;;;;;;7.40;4.90;;;14.70;99.90;;;;;;4986320;28;20411;-72
2023/02/23 10:34:29;;;;;;;6.33;5.40;;;14.90;99.90;;;;;;4967900;28;20452;-71
2023/02/23 10:37:01;;;;;;;8.37;5.93;;;15.00;99.90;;;;;;4986011;28;20415;-71
2023/02/23 10:39:31;;;;;;;7.50;5.03;;;15.40;99.90;;;;;;4985074;28;20439;-72
2023/02/23 10:42:04;;;;;;;9.37;5.23;;;15.60;99.90;;;;;;4985088;28;20901;-70
2023/02/23 10:44:30;;;;;;;5.40;4.70;;;15.80;99.90;;;;;;4967037;28;21030;-69
2023/02/23 10:47:15;;;;;;;8.50;5.07;;;15.40;99.90;;;;;;4984467;28;20551;-70
2023/02/23 10:49:48;;;;;;;7.27;4.50;;;15.70;99.90;;;;;;4984214;28;20458;-71
2023/02/23 10:52:19;;;;;;;8.90;5.13;;;15.70;99.90;;;;;;4967065;28;20467;-70
2023/02/23 10:54:47;;;;;;;9.20;4.73;;;16.30;99.90;;;;;;4985021;28;20447;-71
2023/02/23 10:57:24;;;;;;;6.07;4.10;;;16.50;99.90;;;;;;4984745;28;20475;-71
2023/02/23 11:00:07;;;;;;;7.10;3.80;;;16.70;99.90;;;;;;4983583;28;20519;-70
2023/02/23 11:02:35;;;;;;;7.00;3.40;;;16.60;99.90;;;;;;4984134;28;20473;-70
2023/02/23 11:05:02;;;;;;;9.63;4.23;;;16.30;99.90;;;;;;4983995;28;20506;-71
2023/02/23 11:07:31;;;;;;;15.70;4.30;;;16.20;99.90;;;;;;4983983;28;20463;-69
2023/02/23 11:09:58;;;;;;;11.27;4.00;;;16.30;99.90;;;;;;4984196;28;20970;-69
2023/02/23 11:12:28;;;;;;;5.20;3.23;;;16.60;99.90;;;;;;4984422;28;20418;-72
2023/02/23 11:14:56;;;;;;;7.90;3.27;;;16.70;99.90;;;;;;4984404;28;20430;-70
2023/02/23 11:17:33;;;;;;;9.07;3.90;;;16.90;99.90;;;;;;4983404;28;20805;-69
2023/02/23 11:20:23;;;;;;;15.50;11.97;;;17.10;99.90;;;;;;4984083;28;20412;-70
2023/02/23 11:22:51;;;;;;;12.57;10.43;;;16.60;99.90;;;;;;4984425;28;20513;-72
2023/02/23 11:25:25;;;;;;;14.80;10.37;;;16.50;99.90;;;;;;4984106;28;20424;-70
2023/02/23 11:27:52;;;;;;;17.53;11.40;;;16.50;99.90;;;;;;4983595;28;20510;-70
2023/02/23 11:30:24;;;;;;;14.93;9.73;;;16.20;99.90;;;;;;4983944;28;20411;-68
2023/02/23 11:32:57;;;;;;;13.20;7.60;;;16.30;99.90;;;;;;4984010;28;20966;-73
2023/02/23 11:35:22;;;;;;;12.37;8.17;;;16.00;99.90;;;;;;4984019;28;20404;-70
2023/02/23 11:37:49;;;;;;;12.63;6.87;;;15.50;99.90;;;;;;4983753;28;20790;-70
2023/02/23 11:40:21;;;;;;;15.50;10.00;;;15.20;99.90;;;;;;4984130;28;20232;-70
2023/02/23 11:43:07;;;;;;;15.17;10.07;;;15.50;99.90;;;;;;4966055;28;20435;-71
2023/02/23 11:45:45;;;;;;;13.73;10.30;;;15.60;99.90;;;;;;4983343;28;20988;-69
2023/02/23 11:48:32;;;;;;;12.33;9.30;;;15.60;99.90;;;;;;4983675;28;20428;-69
2023/02/23 11:50:58;;;;;;;16.70;10.93;;;15.40;99.90;;;;;;4984061;28;20939;-70
2023/02/23 11:53:28;;;;;;;18.20;10.60;;;15.60;99.90;;;;;;4984023;28;20446;-70
2023/02/23 11:55:58;;;;;;;10.67;9.43;;;15.50;99.90;;;;;;4983467;28;20558;-69
2023/02/23 11:58:38;;;;;;;12.80;9.90;;;15.70;99.90;;;;;;4984239;28;20507;-71
2023/02/23 12:01:35;;;;;;;10.90;8.53;;;15.90;99.90;;;;;;4987709;28;20453;-69
2023/02/23 12:04:00;;;;;;;13.77;8.73;;;15.80;99.90;;;;;;4979070;28;20490;-71
2023/02/23 12:06:38;;;;;;;17.23;9.33;;;16.00;99.90;;;;;;4970767;28;20982;-71
2023/02/23 12:09:12;;;;;;;11.30;9.57;;;15.60;99.90;;;;;;4987794;28;20196;-71
2023/02/23 12:11:43;;;;;;;16.13;10.37;;;15.30;99.90;;;;;;4970166;28;20407;-69
2023/02/23 12:14:48;;;;;;;28.00;11.57;;;15.40;99.90;;;;;;4987806;28;20933;-70
2023/02/23 12:17:26;;;;;;;15.00;9.47;;;15.00;99.90;;;;;;4978770;28;20437;-71
2023/02/23 12:20:03;;;;;;;20.23;9.47;;;14.90;99.90;;;;;;4986841;28;20425;-71
2023/02/23 12:22:41;;;;;;;12.60;8.50;;;14.90;99.90;;;;;;4987140;28;20932;-71
2023/02/23 12:25:33;;;;;;;12.50;8.30;;;14.60;99.90;;;;;;4987300;28;20415;-74
2023/02/23 12:28:11;;;;;;;27.40;10.50;;;14.60;99.90;;;;;;4969569;28;20540;-72
2023/02/23 12:30:50;;;;;;;11.17;8.90;;;14.60;99.90;;;;;;4987042;28;20411;-70
2023/02/23 12:33:40;;;;;;;15.10;8.07;;;14.60;99.90;;;;;;4987158;28;20403;-71
2023/02/23 12:36:14;;;;;;;9.70;7.80;;;14.80;99.90;;;;;;4987111;28;20410;-72
2023/02/23 12:38:53;;;;;;;8.67;7.00;;;14.70;99.90;;;;;;4987328;28;20457;-71
2023/02/23 12:41:35;;;;;;;14.83;13.47;;;14.60;99.90;;;;;;4987665;28;20415;-72
2023/02/23 12:44:28;;;;;;;19.97;10.43;;;14.80;99.90;;;;;;4969676;28;20991;-70
2023/02/23 12:46:58;;;;;;;10.63;7.13;;;15.30;99.90;;;;;;4987131;28;20526;-72
2023/02/23 12:49:35;;;;;;;21.17;8.37;;;15.50;99.90;;;;;;4986346;28;20444;-71
2023/02/23 12:52:13;;;;;;;17.30;7.70;;;15.50;99.90;;;;;;4987099;28;20423;-73
2023/02/23 12:54:39;;;;;;;11.90;6.90;;;15.60;99.90;;;;;;4969538;28;21149;-71
2023/02/23 12:57:13;;;;;;;13.93;7.40;;;15.90;99.90;;;;;;4987128;28;20445;-71
2023/02/23 13:00:23;;;;;;;13.53;6.40;;;15.90;99.90;;;;;;4986602;28;20443;-71
2023/02/23 13:03:01;;;;;;;12.70;6.70;;;15.60;99.90;;;;;;4986471;28;20415;-74
2023/02/23 13:06:00;;;;;;;12.53;7.10;;;15.20;99.90;;;;;;4986656;28;20464;-71
2023/02/23 13:08:44;;;;;;;7.17;5.80;;;15.30;99.90;;;;;;4986643;28;20866;-72
2023/02/23 13:11:35;;;;;;;9.97;7.27;;;15.60;99.90;;;;;;4985717;28;20400;-70
2023/02/23 13:14:19;;;;;;;16.60;6.90;;;15.60;99.90;;;;;;4986460;28;20415;-70
2023/02/23 13:16:54;;;;;;;9.03;5.30;;;15.90;99.90;;;;;;4985788;28;20420;-70
2023/02/23 13:19:22;;;;;;;8.43;5.87;;;15.70;99.90;;;;;;4986666;28;20424;-71
2023/02/23 13:22:00;;;;;;;14.47;6.80;;;15.60;99.90;;;;;;4986831;28;20408;-71
2023/02/23 13:24:42;;;;;;;9.20;5.57;;;15.60;99.90;;;;;;4985875;28;20419;-71
2023/02/23 13:27:29;;;;;;;9.93;6.10;;;15.60;99.90;;;;;;4986163;28;20497;-71
2023/02/23 13:29:57;;;;;;;10.00;5.53;;;15.30;99.90;;;;;;4986552;28;20764;-73
2023/02/23 13:32:28;;;;;;;7.80;5.17;;;15.30;99.90;;;;;;4985418;28;20413;-72
2023/02/23 13:34:56;;;;;;;11.40;5.40;;;15.20;99.90;;;;;;4969095;28;20422;-72
2023/02/23 13:37:58;;;;;;;9.40;5.80;;;15.60;99.90;;;;;;4986186;28;20427;-71
2023/02/23 13:40:41;;;;;;;10.77;6.30;;;15.70;99.90;;;;;;4965936;28;20422;-72
2023/02/23 13:43:46;;;;;;;11.03;6.80;;;15.40;99.90;;;;;;4986202;28;20407;-70
2023/02/23 13:46:36;;;;;;;11.60;6.90;;;14.80;99.90;;;;;;4985374;28;20571;-71
2023/02/23 13:49:32;;;;;;;9.07;6.23;;;14.50;99.90;;;;;;4985223;28;20448;-70
2023/02/23 13:52:38;;;;;;;11.40;7.47;;;14.50;99.90;;;;;;4968210;28;20429;-72
2023/02/23 13:55:24;;;;;;;8.87;6.33;;;14.50;99.90;;;;;;4975647;28;20797;-71
2023/02/23 13:57:50;;;;;;;12.50;7.90;;;14.60;99.90;;;;;;4989233;28;20973;-72
2023/02/23 14:00:19;;;;;;;13.13;8.87;;;14.40;99.90;;;;;;4985504;28;20437;-71
2023/02/23 14:02:46;;;;;;;10.23;7.77;;;14.40;99.90;;;;;;4985686;28;20430;-71
2023/02/23 14:05:23;;;;;;;15.80;9.10;;;14.80;99.90;;;;;;4985989;28;20423;-70
2023/02/23 14:07:55;;;;;;;12.70;9.00;;;14.90;99.90;;;;;;4986359;28;20848;-73
2023/02/23 14:10:24;;;;;;;13.90;8.80;;;14.90;99.90;;;;;;4985059;28;20508;-69
2023/02/23 14:13:11;;;;;;;13.77;8.70;;;14.60;99.90;;;;;;4985199;28;20825;-72